createdAt,value
2016-02-02T00:06:08.609Z,29.97
2016-02-02T00:07:08.612Z,30.07
2016-02-02T00:08:08.615Z,30.07
2016-02-02T00:09:08.633Z,30.45
2016-02-02T00:10:08.620Z,30.07
2016-02-02T00:11:08.626Z,30.26
2016-02-02T00:12:08.643Z,30.26
2016-02-02T00:13:08.646Z,30.45
2016-02-02T00:14:08.648Z,30.55
2016-02-02T00:15:08.668Z,30.45
2016-02-02T00:16:08.671Z,30.74
2016-02-02T00:17:08.674Z,30.45
2016-02-02T00:18:08.677Z,30.64
2016-02-02T00:19:08.679Z,30.45
2016-02-02T00:20:08.682Z,30.16
2016-02-02T00:21:08.688Z,30.45
2016-02-02T00:22:08.707Z,30.64
2016-02-02T00:23:08.696Z,30.26
2016-02-02T00:24:08.715Z,30.45
2016-02-02T00:25:08.717Z,30.35
2016-02-02T00:26:08.721Z,30.64
2016-02-02T00:27:08.723Z,30.55
2016-02-02T00:28:08.742Z,30.55
2016-02-02T00:29:08.745Z,30.35
2016-02-02T00:30:41.420Z,30.45
2016-02-02T00:31:08.751Z,30.35
2016-02-02T00:32:08.754Z,30.55
2016-02-02T00:33:08.773Z,30.45
2016-02-02T00:34:08.761Z,30.26
2016-02-02T00:35:08.779Z,30.45
2016-02-02T00:36:08.782Z,30.35
2016-02-02T00:37:08.786Z,30.45
2016-02-02T00:38:08.789Z,30.45
2016-02-02T00:39:08.806Z,30.55
2016-02-02T00:40:08.808Z,30.45
2016-02-02T00:41:08.811Z,30.35
2016-02-02T00:42:08.816Z,30.74
2016-02-02T00:43:08.818Z,30.55
2016-02-02T00:44:08.837Z,30.55
2016-02-02T00:45:08.840Z,30.83
2016-02-02T00:46:08.843Z,30.45
2016-02-02T00:47:08.846Z,30.35
2016-02-02T00:48:08.848Z,30.35
2016-02-02T00:49:08.883Z,30.64
2016-02-02T00:50:08.870Z,30.35
2016-02-02T00:51:08.872Z,30.74
2016-02-02T00:52:08.875Z,30.35
2016-02-02T00:53:08.879Z,30.74
2016-02-02T00:54:08.882Z,30.45
2016-02-02T00:55:08.884Z,30.45
2016-02-02T00:56:08.903Z,30.55
2016-02-02T00:57:08.905Z,30.55
2016-02-02T00:58:08.909Z,30.74
2016-02-02T00:59:08.928Z,30.45
2016-02-02T01:00:43.077Z,30.16
2016-02-02T01:01:08.924Z,30.35
2016-02-02T01:02:08.943Z,30.45
2016-02-02T01:03:08.946Z,30.26
2016-02-02T01:04:08.963Z,30.74
2016-02-02T01:05:08.951Z,30.55
2016-02-02T01:06:08.954Z,30.26
2016-02-02T01:07:08.956Z,30.26
2016-02-02T01:08:08.960Z,30.74
2016-02-02T01:09:08.979Z,30.64
2016-02-02T01:10:08.982Z,30.74
2016-02-02T01:11:08.984Z,30.74
2016-02-02T01:12:08.987Z,30.26
2016-02-02T01:13:09.006Z,30.26
2016-02-02T01:14:09.008Z,30.35
2016-02-02T01:15:09.011Z,30.26
2016-02-02T01:16:09.014Z,30.35
2016-02-02T01:17:09.017Z,30.55
2016-02-02T01:18:09.034Z,30.45
2016-02-02T01:19:09.023Z,30.26
2016-02-02T01:20:09.040Z,30.74
2016-02-02T01:21:09.059Z,30.35
2016-02-02T01:22:09.046Z,30.45
2016-02-02T01:23:09.048Z,30.55
2016-02-02T01:24:09.083Z,30.45
2016-02-02T01:25:09.070Z,30.74
2016-02-02T01:26:09.073Z,30.35
2016-02-02T01:27:09.075Z,30.26
2016-02-02T01:28:09.094Z,30.45
2016-02-02T01:29:09.090Z,30.35
2016-02-02T01:34:04.668Z,30.35
2016-02-02T01:35:04.672Z,30.45
2016-02-02T01:36:04.691Z,30.45
2016-02-02T01:37:04.695Z,30.45
2016-02-02T01:38:04.697Z,30.45
2016-02-02T01:39:04.699Z,30.55
2016-02-02T01:40:04.704Z,30.26
2016-02-02T01:41:04.722Z,30.55
2016-02-02T01:42:04.725Z,30.45
2016-02-02T01:43:04.727Z,30.16
2016-02-02T01:44:04.747Z,30.55
2016-02-02T01:45:04.734Z,30.45
2016-02-02T01:46:04.753Z,30.35
2016-02-02T01:47:04.755Z,30.16
2016-02-02T01:48:04.757Z,30.16
2016-02-02T01:49:04.764Z,30.35
2016-02-02T01:50:04.766Z,30.55
2016-02-02T01:51:04.772Z,30.35
2016-02-02T01:52:04.774Z,30.45
2016-02-02T01:53:04.793Z,30.45
2016-02-02T01:54:04.795Z,30.16
2016-02-02T01:55:04.797Z,30.45
2016-02-02T01:56:04.803Z,30.45
2016-02-02T01:57:04.806Z,30.35
2016-02-02T01:58:04.809Z,30.35
2016-02-02T01:59:04.828Z,30.35
2016-02-02T02:00:04.815Z,30.45
2016-02-02T02:01:04.819Z,30.45
2016-02-02T02:02:04.837Z,30.45
2016-02-02T02:03:04.840Z,30.35
2016-02-02T02:04:04.843Z,30.45
2016-02-02T02:05:04.848Z,30.35
2016-02-02T02:06:04.850Z,30.45
2016-02-02T02:07:04.868Z,30.35
2016-02-02T02:08:04.871Z,30.35
2016-02-02T02:09:04.874Z,30.55
2016-02-02T02:10:04.877Z,30.45
2016-02-02T02:11:04.879Z,30.64
2016-02-02T02:12:04.882Z,30.45
2016-02-02T02:13:04.901Z,30.26
2016-02-02T02:14:04.904Z,30.35
2016-02-02T02:15:04.751Z,30.55
2016-02-02T02:16:04.910Z,30.43
2016-02-02T02:17:04.920Z,30.26
2016-02-02T02:18:04.923Z,30.34
2016-02-02T02:19:04.925Z,30.45
2016-02-02T02:20:04.943Z,30.35
2016-02-02T02:21:04.930Z,30.34
2016-02-02T02:22:04.950Z,30.24
2016-02-02T02:23:04.953Z,30.45
2016-02-02T02:24:04.955Z,30.53
2016-02-02T02:25:04.959Z,30.35
2016-02-02T02:26:04.964Z,30.34
2016-02-02T02:27:04.982Z,30.15
2016-02-02T02:28:04.969Z,30.45
2016-02-02T02:29:04.974Z,30.34
2016-02-02T02:34:29.770Z,30.45
2016-02-02T02:35:29.756Z,30.45
2016-02-02T02:36:29.775Z,30.45
2016-02-02T02:37:29.778Z,30.34
2016-02-02T02:38:29.781Z,30.26
2016-02-02T02:39:29.783Z,30.35
2016-02-02T02:40:29.785Z,30.24
2016-02-02T02:41:29.803Z,30.43
2016-02-02T02:42:29.792Z,30.34
2016-02-02T02:43:29.810Z,30.43
2016-02-02T02:44:29.812Z,30.34
2016-02-02T02:45:29.832Z,30.63
2016-02-02T02:46:29.818Z,30.43
2016-02-02T02:47:29.823Z,30.34
2016-02-02T02:48:29.842Z,30.34
2016-02-02T02:49:29.845Z,29.95
2016-02-02T02:50:29.848Z,30.34
2016-02-02T02:51:29.851Z,30.74
2016-02-02T02:52:29.869Z,30.43
2016-02-02T02:53:29.857Z,30.82
2016-02-02T02:54:29.860Z,30.34
2016-02-02T02:55:29.877Z,30.34
2016-02-02T02:56:29.869Z,30.53
2016-02-02T02:57:29.886Z,30.24
2016-02-02T02:58:29.890Z,30.34
2016-02-02T02:59:29.897Z,30.34
2016-02-02T03:03:22.893Z,30.73
2016-02-02T03:04:19.165Z,30.34
2016-02-02T03:05:19.167Z,30.24
2016-02-02T03:06:19.171Z,30.34
2016-02-02T03:07:19.190Z,30.53
2016-02-02T03:08:19.193Z,30.63
2016-02-02T03:09:19.195Z,30.43
2016-02-02T03:10:19.198Z,30.73
2016-02-02T03:11:19.201Z,30.63
2016-02-02T03:12:19.221Z,30.24
2016-02-02T03:13:19.208Z,30.63
2016-02-02T03:14:19.228Z,30.73
2016-02-02T03:15:19.218Z,30.82
2016-02-02T03:16:19.235Z,30.43
2016-02-02T03:17:19.238Z,30.43
2016-02-02T03:18:19.257Z,30.53
2016-02-02T03:19:19.088Z,30.34
2016-02-02T03:20:19.247Z,30.34
2016-02-02T03:21:19.266Z,30.43
2016-02-02T03:22:19.268Z,30.82
2016-02-02T03:23:19.272Z,30.24
2016-02-02T03:24:19.278Z,30.34
2016-02-02T03:25:19.281Z,30.34
2016-02-02T03:26:19.284Z,30.34
2016-02-02T03:27:19.288Z,30.63
2016-02-02T03:28:19.291Z,30.34
2016-02-02T03:29:19.296Z,30.34
2016-02-02T03:34:23.866Z,30.53
2016-02-02T03:35:23.869Z,30.73
2016-02-02T03:36:23.871Z,30.24
2016-02-02T03:37:23.890Z,30.53
2016-02-02T03:38:23.878Z,30.24
2016-02-02T03:39:23.881Z,30.73
2016-02-02T03:40:23.899Z,30.34
2016-02-02T03:41:23.901Z,30.53
2016-02-02T03:42:23.904Z,30.24
2016-02-02T03:43:23.906Z,30.34
2016-02-02T03:44:23.912Z,30.82
2016-02-02T03:45:23.889Z,30.34
2016-02-02T03:46:23.895Z,30.15
2016-02-02T03:47:23.887Z,30.24
2016-02-02T03:48:23.880Z,30.73
2016-02-02T03:49:23.895Z,30.43
2016-02-02T03:50:23.880Z,30.43
2016-02-02T03:51:23.879Z,30.24
2016-02-02T03:52:23.894Z,30.43
2016-02-02T03:53:23.893Z,30.24
2016-02-02T03:54:23.895Z,30.43
2016-02-02T03:55:23.896Z,30.24
2016-02-02T03:56:23.897Z,30.82
2016-02-02T03:57:23.898Z,30.24
2016-02-02T03:58:23.915Z,30.63
2016-02-02T03:59:23.950Z,30.34
2016-02-02T04:01:59.470Z,30.34
2016-02-02T04:02:59.489Z,30.43
2016-02-02T04:03:59.464Z,30.43
2016-02-02T04:04:59.467Z,30.63
2016-02-02T04:05:59.485Z,30.34
2016-02-02T04:06:59.520Z,30.43
2016-02-02T04:07:59.491Z,30.24
2016-02-02T04:08:59.494Z,30.34
2016-02-02T04:09:59.496Z,30.34
2016-02-02T04:10:59.500Z,30.73
2016-02-02T04:11:59.503Z,30.24
2016-02-02T04:12:59.505Z,30.73
2016-02-02T04:13:59.539Z,30.53
2016-02-02T04:14:59.527Z,30.34
2016-02-02T04:15:59.531Z,30.63
2016-02-02T04:16:59.545Z,30.24
2016-02-02T04:17:59.548Z,30.34
2016-02-02T04:18:59.551Z,30.34
2016-02-02T04:19:59.555Z,30.15
2016-02-02T04:20:59.557Z,30.63
2016-02-02T04:21:59.559Z,30.43
2016-02-02T04:22:59.578Z,30.34
2016-02-02T04:23:59.598Z,30.24
2016-02-02T04:24:59.585Z,30.34
2016-02-02T04:25:59.587Z,30.43
2016-02-02T04:26:59.591Z,30.43
2016-02-02T04:27:59.594Z,30.43
2016-02-02T04:28:59.613Z,30.15
2016-02-02T04:35:38.131Z,30.43
2016-02-02T04:36:38.118Z,30.34
2016-02-02T04:37:38.121Z,30.24
2016-02-02T04:38:38.140Z,30.24
2016-02-02T04:39:38.142Z,30.53
2016-02-02T04:40:38.145Z,30.34
2016-02-02T04:41:38.163Z,30.63
2016-02-02T04:42:38.152Z,30.43
2016-02-02T04:43:38.154Z,30.34
2016-02-02T04:44:38.172Z,30.43
2016-02-02T04:45:38.206Z,30.15
2016-02-02T04:46:38.177Z,30.43
2016-02-02T04:47:38.180Z,30.53
2016-02-02T04:48:38.198Z,30.34
2016-02-02T04:49:38.186Z,30.43
2016-02-02T04:50:38.204Z,30.53
2016-02-02T04:51:38.207Z,30.53
2016-02-02T04:52:38.211Z,29.95
2016-02-02T04:53:38.213Z,30.53
2016-02-02T04:54:38.231Z,30.34
2016-02-02T04:55:38.233Z,30.24
2016-02-02T04:56:38.221Z,30.34
2016-02-02T04:57:38.240Z,30.43
2016-02-02T04:58:38.243Z,30.15
2016-02-02T04:59:38.261Z,30.24
2016-02-02T05:03:47.743Z,30.24
2016-02-02T05:04:27.510Z,30.53
2016-02-02T05:05:27.514Z,30.43
2016-02-02T05:06:27.532Z,30.53
2016-02-02T05:07:27.536Z,30.34
2016-02-02T05:08:27.539Z,30.24
2016-02-02T05:09:27.542Z,30.63
2016-02-02T05:10:27.544Z,30.34
2016-02-02T05:11:27.565Z,30.43
2016-02-02T05:12:27.568Z,30.43
2016-02-02T05:13:27.570Z,30.34
2016-02-02T05:14:27.577Z,30.15
2016-02-02T05:15:27.564Z,30.24
2016-02-02T05:16:27.582Z,30.15
2016-02-02T05:17:27.585Z,30.53
2016-02-02T05:18:27.604Z,30.53
2016-02-02T05:19:27.590Z,30.34
2016-02-02T05:20:27.608Z,30.43
2016-02-02T05:21:27.611Z,30.24
2016-02-02T05:22:27.615Z,30.43
2016-02-02T05:23:27.618Z,30.24
2016-02-02T05:24:27.620Z,30.34
2016-02-02T05:25:27.639Z,30.24
2016-02-02T05:26:27.657Z,30.34
2016-02-02T05:27:27.660Z,30.34
2016-02-02T05:28:27.648Z,30.05
2016-02-02T05:29:27.653Z,30.15
2016-02-02T05:32:34.493Z,30.53
2016-02-02T05:33:34.495Z,30.05
2016-02-02T05:34:34.499Z,30.43
2016-02-02T05:35:34.501Z,30.05
2016-02-02T05:36:34.504Z,30.24
2016-02-02T05:37:34.522Z,30.34
2016-02-02T05:38:34.525Z,30.15
2016-02-02T05:39:34.540Z,30.43
2016-02-02T05:40:34.527Z,30.43
2016-02-02T05:41:34.545Z,30.24
2016-02-02T05:42:34.564Z,30.43
2016-02-02T05:43:34.535Z,30.24
2016-02-02T05:44:34.542Z,30.24
2016-02-02T05:45:34.561Z,30.24
2016-02-02T05:46:34.563Z,30.34
2016-02-02T05:47:34.566Z,30.05
2016-02-02T05:48:34.584Z,30.15
2016-02-02T05:49:34.571Z,30.34
2016-02-02T05:50:34.575Z,30.24
2016-02-02T05:51:34.608Z,30.15
2016-02-02T05:52:34.595Z,30.24
2016-02-02T05:53:34.615Z,30.24
2016-02-02T05:54:34.602Z,30.24
2016-02-02T05:55:34.604Z,30.05
2016-02-02T05:56:34.623Z,30.24
2016-02-02T05:57:34.609Z,30.05
2016-02-02T05:58:34.628Z,30.24
2016-02-02T05:59:34.647Z,30.63
2016-02-02T06:05:10.490Z,30.05
2016-02-02T06:06:10.492Z,29.95
2016-02-02T06:07:10.511Z,30.15
2016-02-02T06:08:10.545Z,30.24
2016-02-02T06:09:10.516Z,30.05
2016-02-02T06:10:10.519Z,29.86
2016-02-02T06:11:10.522Z,30.15
2016-02-02T06:12:10.541Z,29.95
2016-02-02T06:13:10.527Z,29.95
2016-02-02T06:14:10.530Z,30.05
2016-02-02T06:15:10.552Z,29.95
2016-02-02T06:16:10.570Z,29.95
2016-02-02T06:17:10.557Z,30.15
2016-02-02T06:18:10.560Z,30.24
2016-02-02T06:19:10.580Z,29.86
2016-02-02T06:20:10.568Z,30.15
2016-02-02T06:21:10.570Z,30.05
2016-02-02T06:22:10.588Z,30.05
2016-02-02T06:23:10.591Z,30.05
2016-02-02T06:24:10.594Z,30.05
2016-02-02T06:25:10.597Z,30.05
2016-02-02T06:26:10.603Z,30.05
2016-02-02T06:27:10.622Z,30.05
2016-02-02T06:28:10.609Z,30.05
2016-02-02T06:29:10.611Z,29.95
2016-02-02T06:30:50.937Z,30.05
2016-02-02T06:31:10.642Z,30.05
2016-02-02T06:32:10.646Z,29.95
2016-02-02T06:33:10.632Z,30.15
2016-02-02T06:34:10.635Z,29.95
2016-02-02T06:35:10.653Z,30.05
2016-02-02T06:36:10.672Z,30.05
2016-02-02T06:37:10.675Z,30.05
2016-02-02T06:38:10.663Z,30.05
2016-02-02T06:39:10.665Z,29.95
2016-02-02T06:40:10.668Z,29.95
2016-02-02T06:41:10.686Z,29.95
2016-02-02T06:42:10.688Z,30.24
2016-02-02T06:43:10.691Z,30.05
2016-02-02T06:44:10.710Z,29.95
2016-02-02T06:45:10.713Z,30.05
2016-02-02T06:46:10.715Z,30.05
2016-02-02T06:47:10.718Z,30.05
2016-02-02T06:48:10.720Z,30.24
2016-02-02T06:49:10.724Z,30.05
2016-02-02T06:50:10.742Z,30.15
2016-02-02T06:51:10.744Z,29.66
2016-02-02T06:52:10.732Z,29.95
2016-02-02T06:53:10.752Z,30.15
2016-02-02T06:54:10.769Z,30.05
2016-02-02T06:55:10.756Z,30.24
2016-02-02T06:56:10.759Z,30.05
2016-02-02T06:57:10.778Z,29.86
2016-02-02T06:58:10.782Z,29.86
2016-02-02T06:59:10.769Z,29.95
2016-02-02T07:05:38.194Z,29.95
2016-02-02T07:06:38.197Z,29.86
2016-02-02T07:07:38.200Z,29.76
2016-02-02T07:08:38.203Z,29.76
2016-02-02T07:09:38.222Z,29.95
2016-02-02T07:10:38.209Z,29.95
2016-02-02T07:11:38.212Z,29.86
2016-02-02T07:12:38.229Z,29.86
2016-02-02T07:13:38.253Z,29.66
2016-02-02T07:14:38.240Z,29.66
2016-02-02T07:15:38.242Z,30.34
2016-02-02T07:16:38.261Z,29.86
2016-02-02T07:17:38.264Z,29.95
2016-02-02T07:18:38.268Z,29.66
2016-02-02T07:19:38.254Z,29.95
2016-02-02T07:20:38.273Z,29.66
2016-02-02T07:21:38.280Z,30.43
2016-02-02T07:22:38.284Z,29.86
2016-02-02T07:23:38.286Z,30.05
2016-02-02T07:24:38.304Z,29.57
2016-02-02T07:25:38.291Z,29.95
2016-02-02T07:26:38.308Z,30.15
2016-02-02T07:27:38.308Z,30.15
2016-02-02T07:28:38.311Z,30.15
2016-02-02T07:29:38.315Z,30.05
2016-02-02T07:32:02.769Z,29.57
2016-02-02T07:33:05.261Z,29.38
2016-02-02T07:34:04.291Z,29.49
2016-02-02T07:35:02.850Z,29.39
2016-02-02T07:36:02.681Z,29.29
2016-02-02T07:37:04.121Z,29.58
2016-02-02T07:38:02.717Z,29
2016-02-02T07:39:02.736Z,29.1
2016-02-02T07:40:02.729Z,29.1
2016-02-02T07:41:02.717Z,29.1
2016-02-02T07:42:02.735Z,28.91
2016-02-02T07:43:02.722Z,28.91
2016-02-02T07:44:02.741Z,28.91
2016-02-02T07:45:02.744Z,28.91
2016-02-02T07:46:02.762Z,28.91
2016-02-02T07:47:02.749Z,28.52
2016-02-02T07:48:02.769Z,28.44
2016-02-02T07:49:02.756Z,28.63
2016-02-02T07:50:02.775Z,28.34
2016-02-02T07:51:02.780Z,28.34
2016-02-02T07:52:02.784Z,28.05
2016-02-02T07:53:02.786Z,28.05
2016-02-02T07:54:02.804Z,28.05
2016-02-02T07:55:02.811Z,28.15
2016-02-02T07:56:02.814Z,28.25
2016-02-02T07:57:02.816Z,28.05
2016-02-02T07:58:02.819Z,28.05
2016-02-02T07:59:02.839Z,28.15
2016-02-02T08:02:00.707Z,27.76
2016-02-02T08:03:00.694Z,27.86
2016-02-02T08:04:00.713Z,27.96
2016-02-02T08:05:00.713Z,27.86
2016-02-02T08:06:00.716Z,27.67
2016-02-02T08:07:00.720Z,27.97
2016-02-02T08:08:00.724Z,27.39
2016-02-02T08:09:00.742Z,27.78
2016-02-02T08:10:00.744Z,27.68
2016-02-02T08:11:00.747Z,27.68
2016-02-02T08:12:00.765Z,27.68
2016-02-02T08:13:00.768Z,27.59
2016-02-02T08:14:00.778Z,27.49
2016-02-02T08:15:00.785Z,27.59
2016-02-02T08:16:00.788Z,27.49
2016-02-02T08:17:00.823Z,27.59
2016-02-02T08:18:00.795Z,27.39
2016-02-02T08:19:00.798Z,27.29
2016-02-02T08:20:00.800Z,27.39
2016-02-02T08:21:00.822Z,27.49
2016-02-02T08:22:00.684Z,27.68
2016-02-02T08:23:00.828Z,27.68
2016-02-02T08:24:00.845Z,27.49
2016-02-02T08:25:00.848Z,27.49
2016-02-02T08:26:00.868Z,27.01
2016-02-02T08:27:00.854Z,27.29
2016-02-02T08:28:00.859Z,27.11
2016-02-02T08:29:00.862Z,27.39
2016-02-02T08:31:19.030Z,27.39
2016-02-02T08:32:19.048Z,27.11
2016-02-02T08:33:18.879Z,27.2
2016-02-02T08:34:19.054Z,27.2
2016-02-02T08:35:19.057Z,27.29
2016-02-02T08:36:19.074Z,27.39
2016-02-02T08:37:19.077Z,27.39
2016-02-02T08:38:19.080Z,27.39
2016-02-02T08:39:19.083Z,27.2
2016-02-02T08:40:19.101Z,27.11
2016-02-02T08:41:19.104Z,27.39
2016-02-02T08:42:19.124Z,27.2
2016-02-02T08:43:19.126Z,27.2
2016-02-02T08:44:19.129Z,27.29
2016-02-02T08:45:19.132Z,27.29
2016-02-02T08:46:19.134Z,27.11
2016-02-02T08:47:19.140Z,27.12
2016-02-02T08:48:19.158Z,26.64
2016-02-02T08:49:19.160Z,26.81
2016-02-02T08:50:19.163Z,27.01
2016-02-02T08:51:19.184Z,27.2
2016-02-02T08:52:19.171Z,26.72
2016-02-02T08:53:19.173Z,26.81
2016-02-02T08:54:19.191Z,26.91
2016-02-02T08:55:19.226Z,26.73
2016-02-02T08:56:19.216Z,26.64
2016-02-02T08:57:19.219Z,26.81
2016-02-02T08:58:19.213Z,26.62
2016-02-02T08:59:19.231Z,26.72
2016-02-02T09:04:44.011Z,26.73
2016-02-02T09:05:44.015Z,26.72
2016-02-02T09:06:44.017Z,26.82
2016-02-02T09:07:44.024Z,26.92
2016-02-02T09:08:44.041Z,26.81
2016-02-02T09:09:44.044Z,26.81
2016-02-02T09:10:44.047Z,26.81
2016-02-02T09:11:44.050Z,26.73
2016-02-02T09:12:44.070Z,26.82
2016-02-02T09:13:44.074Z,26.73
2016-02-02T09:14:44.093Z,26.64
2016-02-02T09:15:44.079Z,26.64
2016-02-02T09:16:44.098Z,26.92
2016-02-02T09:17:44.102Z,26.81
2016-02-02T09:18:44.104Z,26.72
2016-02-02T09:19:44.128Z,26.82
2016-02-02T09:20:44.115Z,26.73
2016-02-02T09:21:44.133Z,26.64
2016-02-02T09:22:44.136Z,26.82
2016-02-02T09:23:44.138Z,26.72
2016-02-02T09:24:44.158Z,26.82
2016-02-02T09:25:44.160Z,26.92
2016-02-02T09:26:44.163Z,26.73
2016-02-02T09:27:44.184Z,26.73
2016-02-02T09:28:44.171Z,26.73
2016-02-02T09:29:44.174Z,26.73
2016-02-02T09:32:22.244Z,26.64
2016-02-02T09:33:22.262Z,26.73
2016-02-02T09:34:22.250Z,26.73
2016-02-02T09:35:22.269Z,26.73
2016-02-02T09:36:22.272Z,26.92
2016-02-02T09:37:22.275Z,26.64
2016-02-02T09:38:22.293Z,26.73
2016-02-02T09:39:22.281Z,26.64
2016-02-02T09:40:22.298Z,26.82
2016-02-02T09:41:22.301Z,27.02
2016-02-02T09:42:22.304Z,26.64
2016-02-02T09:43:22.323Z,26.92
2016-02-02T09:44:22.325Z,26.64
2016-02-02T09:45:22.328Z,26.54
2016-02-02T09:46:22.331Z,26.54
2016-02-02T09:47:22.348Z,26.44
2016-02-02T09:48:22.351Z,26.54
2016-02-02T09:49:22.369Z,26.44
2016-02-02T09:50:22.391Z,26.54
2016-02-02T09:51:22.361Z,26.54
2016-02-02T09:52:22.396Z,26.54
2016-02-02T09:53:22.398Z,26.54
2016-02-02T09:54:22.401Z,26.54
2016-02-02T09:55:22.404Z,26.64
2016-02-02T09:56:22.427Z,26.54
2016-02-02T09:57:22.414Z,26.44
2016-02-02T09:58:22.431Z,26.34
2016-02-02T09:59:22.435Z,26.44
2016-02-02T10:01:57.975Z,26.25
2016-02-02T10:02:57.978Z,26.44
2016-02-02T10:03:57.998Z,26.25
2016-02-02T10:04:57.984Z,26.34
2016-02-02T10:05:58.003Z,26.25
2016-02-02T10:06:58.005Z,26.34
2016-02-02T10:07:58.024Z,26.34
2016-02-02T10:08:58.028Z,26.34
2016-02-02T10:09:58.031Z,26.44
2016-02-02T10:10:58.033Z,26.44
2016-02-02T10:11:58.051Z,26.34
2016-02-02T10:12:58.038Z,26.25
2016-02-02T10:13:58.057Z,26.44
2016-02-02T10:14:58.075Z,26.44
2016-02-02T10:15:58.092Z,26.64
2016-02-02T10:16:58.080Z,26.64
2016-02-02T10:17:58.098Z,26.64
2016-02-02T10:18:58.101Z,26.25
2016-02-02T10:19:58.119Z,26.54
2016-02-02T10:20:58.106Z,26.54
2016-02-02T10:21:58.124Z,26.64
2016-02-02T10:22:58.127Z,26.44
2016-02-02T10:23:58.146Z,26.44
2016-02-02T10:24:58.133Z,26.44
2016-02-02T10:25:58.135Z,26.44
2016-02-02T10:26:58.158Z,26.44
2016-02-02T10:27:58.161Z,26.34
2016-02-02T10:28:58.179Z,26.64
2016-02-02T10:30:18.419Z,26.34
2016-02-02T10:30:58.184Z,26.44
2016-02-02T10:31:58.187Z,26.54
2016-02-02T10:32:58.178Z,26.15
2016-02-02T10:33:58.211Z,26.25
2016-02-02T10:34:58.193Z,26.34
2016-02-02T10:35:58.212Z,26.64
2016-02-02T10:36:58.246Z,26.34
2016-02-02T10:37:58.233Z,26.64
2016-02-02T10:38:58.251Z,26.15
2016-02-02T10:39:58.240Z,26.34
2016-02-02T10:40:58.242Z,26.25
2016-02-02T10:41:58.245Z,26.44
2016-02-02T10:42:58.279Z,26.64
2016-02-02T10:43:58.266Z,26.44
2016-02-02T10:44:58.285Z,26.25
2016-02-02T10:45:58.272Z,26.54
2016-02-02T10:46:58.291Z,26.54
2016-02-02T10:47:58.308Z,26.34
2016-02-02T10:48:58.296Z,26.25
2016-02-02T10:49:58.331Z,26.54
2016-02-02T10:50:58.317Z,26.44
2016-02-02T10:51:58.319Z,26.44
2016-02-02T10:52:58.354Z,26.25
2016-02-02T10:53:58.341Z,26.06
2016-02-02T10:54:58.360Z,26.34
2016-02-02T10:55:58.346Z,26.25
2016-02-02T10:56:58.384Z,26.34
2016-02-02T10:57:58.371Z,26.34
2016-02-02T10:58:58.376Z,26.44
2016-02-02T11:04:39.189Z,26.64
2016-02-02T11:05:39.176Z,26.34
2016-02-02T11:06:39.210Z,26.34
2016-02-02T11:07:39.196Z,26.45
2016-02-02T11:08:39.216Z,26.26
2016-02-02T11:09:39.218Z,26.75
2016-02-02T11:10:39.070Z,26.54
2016-02-02T11:11:39.228Z,26.34
2016-02-02T11:12:39.246Z,26.54
2016-02-02T11:13:39.249Z,26.54
2016-02-02T11:14:39.253Z,26.34
2016-02-02T11:15:39.271Z,26.34
2016-02-02T11:16:39.273Z,26.25
2016-02-02T11:17:39.278Z,26.35
2016-02-02T11:18:39.280Z,26.44
2016-02-02T11:19:39.314Z,26.15
2016-02-02T11:20:39.285Z,26.25
2016-02-02T11:21:39.307Z,26.26
2016-02-02T11:22:39.310Z,26.26
2016-02-02T11:23:39.313Z,26.26
2016-02-02T11:24:39.330Z,26.35
2016-02-02T11:25:39.333Z,26.35
2016-02-02T11:26:39.353Z,26.45
2016-02-02T11:27:39.373Z,26.34
2016-02-02T11:28:39.365Z,26.25
2016-02-02T11:29:39.351Z,26.06
2016-02-02T11:32:25.969Z,26.64
2016-02-02T11:33:25.989Z,26.34
2016-02-02T11:34:25.992Z,26.34
2016-02-02T11:35:25.994Z,26.17
2016-02-02T11:36:25.998Z,26.64
2016-02-02T11:37:26.000Z,26.65
2016-02-02T11:38:26.018Z,26.35
2016-02-02T11:39:26.021Z,26.35
2016-02-02T11:40:26.026Z,26.54
2016-02-02T11:41:26.029Z,26.26
2016-02-02T11:42:26.047Z,26.34
2016-02-02T11:43:26.049Z,26.26
2016-02-02T11:44:26.068Z,26.64
2016-02-02T11:45:26.075Z,26.34
2016-02-02T11:46:26.077Z,26.64
2016-02-02T11:47:26.081Z,26.15
2016-02-02T11:48:26.084Z,26.44
2016-02-02T11:49:26.102Z,26.54
2016-02-02T11:50:26.104Z,26.44
2016-02-02T11:51:26.107Z,26.54
2016-02-02T11:52:26.109Z,26.73
2016-02-02T11:53:26.129Z,26.64
2016-02-02T11:54:26.131Z,26.35
2016-02-02T11:55:26.149Z,26.25
2016-02-02T11:56:26.152Z,26.64
2016-02-02T11:57:26.155Z,26.64
2016-02-02T11:58:26.160Z,26.64
2016-02-02T11:59:26.179Z,26.64
2016-02-02T12:05:35.604Z,26.44
2016-02-02T12:06:35.608Z,26.26
2016-02-02T12:07:35.611Z,26.35
2016-02-02T12:08:35.645Z,26.34
2016-02-02T12:09:35.632Z,26.25
2016-02-02T12:10:35.650Z,26.25
2016-02-02T12:11:35.639Z,26.44
2016-02-02T12:12:35.656Z,26.34
2016-02-02T12:13:35.675Z,26.25
2016-02-02T12:14:35.677Z,26.25
2016-02-02T12:15:35.664Z,26.34
2016-02-02T12:16:35.684Z,26.26
2016-02-02T12:17:35.702Z,26.35
2016-02-02T12:18:35.689Z,26.55
2016-02-02T12:19:35.550Z,26.64
2016-02-02T12:20:35.756Z,26.64
2016-02-02T12:21:35.713Z,26.25
2016-02-02T12:22:35.762Z,26.82
2016-02-02T12:23:35.734Z,26.25
2016-02-02T12:24:35.752Z,26.34
2016-02-02T12:25:35.771Z,26.64
2016-02-02T12:26:35.758Z,26.25
2016-02-02T12:27:35.777Z,26.34
2016-02-02T12:28:35.763Z,26.25
2016-02-02T12:29:35.778Z,26.44
2016-02-02T12:30:56.014Z,26.15
2016-02-02T12:31:35.783Z,26.34
2016-02-02T12:32:35.644Z,26.25
2016-02-02T12:33:35.802Z,26.64
2016-02-02T12:34:35.806Z,26.25
2016-02-02T12:35:35.841Z,26.55
2016-02-02T12:36:35.827Z,26.44
2016-02-02T12:37:35.829Z,26.44
2016-02-02T12:38:35.848Z,26.34
2016-02-02T12:39:35.897Z,26.34
2016-02-02T12:40:35.854Z,26.34
2016-02-02T12:41:35.859Z,26.44
2016-02-02T12:42:35.876Z,26.44
2016-02-02T12:43:35.878Z,26.25
2016-02-02T12:44:35.882Z,26.44
2016-02-02T12:45:35.900Z,26.25
2016-02-02T12:46:35.903Z,26.34
2016-02-02T12:47:35.905Z,26.15
2016-02-02T12:48:35.923Z,26.34
2016-02-02T12:49:35.904Z,26.34
2016-02-02T12:50:35.926Z,26.34
2016-02-02T12:51:35.919Z,26.54
2016-02-02T12:52:35.895Z,26.25
2016-02-02T12:53:35.935Z,26.44
2016-02-02T12:54:35.901Z,26.64
2016-02-02T12:55:35.899Z,26.44
2016-02-02T12:56:35.898Z,26.34
2016-02-02T12:57:35.913Z,26.34
2016-02-02T12:58:35.912Z,26.44
2016-02-02T12:59:35.928Z,26.34
2016-02-02T13:00:35.935Z,26.15
2016-02-02T13:01:35.921Z,26.25
2016-02-02T13:02:35.938Z,26.44
2016-02-02T13:03:35.956Z,26.34
2016-02-02T13:04:35.959Z,26.54
2016-02-02T13:05:35.961Z,26.34
2016-02-02T13:06:35.978Z,26.34
2016-02-02T13:07:35.997Z,26.34
2016-02-02T13:08:35.968Z,26.64
2016-02-02T13:09:35.985Z,26.54
2016-02-02T13:10:35.988Z,26.54
2016-02-02T13:11:36.006Z,26.54
2016-02-02T13:12:36.012Z,26.45
2016-02-02T13:13:36.014Z,26.35
2016-02-02T13:14:36.033Z,26.35
2016-02-02T13:15:36.020Z,26.15
2016-02-02T13:16:36.039Z,26.45
2016-02-02T13:17:36.042Z,26.25
2016-02-02T13:18:36.044Z,26.06
2016-02-02T13:19:36.066Z,26.75
2016-02-02T13:20:36.069Z,26.64
2016-02-02T13:21:36.087Z,26.73
2016-02-02T13:22:36.074Z,26.54
2016-02-02T13:23:36.076Z,26.64
2016-02-02T13:24:36.098Z,26.34
2016-02-02T13:25:36.101Z,26.64
2016-02-02T13:26:36.104Z,26.64
2016-02-02T13:27:36.107Z,26.44
2016-02-02T13:28:36.124Z,26.25
2016-02-02T13:29:36.129Z,26.34
2016-02-02T13:30:56.350Z,26.54
2016-02-02T13:31:36.151Z,26.64
2016-02-02T13:32:36.138Z,26.34
2016-02-02T13:33:36.156Z,26.25
2016-02-02T13:34:36.175Z,26.34
2016-02-02T13:35:36.162Z,26.25
2016-02-02T13:36:36.196Z,26.34
2016-02-02T13:37:36.182Z,26.25
2016-02-02T13:38:36.202Z,26.34
2016-02-02T13:39:36.221Z,26.45
2016-02-02T13:40:36.207Z,26.35
2016-02-02T13:41:36.226Z,26.34
2016-02-02T13:42:36.228Z,26.44
2016-02-02T13:43:36.216Z,26.25
2016-02-02T13:44:36.235Z,26.25
2016-02-02T13:45:36.253Z,26.35
2016-02-02T13:46:36.255Z,26.35
2016-02-02T13:47:36.258Z,26.25
2016-02-02T13:48:36.261Z,25.96
2016-02-02T13:49:36.279Z,26.73
2016-02-02T13:50:36.269Z,26.45
2016-02-02T13:51:36.303Z,26.35
2016-02-02T13:52:36.290Z,26.25
2016-02-02T13:53:36.308Z,26.15
2016-02-02T13:54:36.296Z,26.26
2016-02-02T13:55:36.314Z,26.17
2016-02-02T13:56:36.318Z,26.17
2016-02-02T13:57:36.383Z,26.17
2016-02-02T13:58:36.345Z,26.26
2016-02-02T13:59:36.332Z,26.07
2016-02-02T14:00:36.350Z,26.17